Maple, North Dakota
Current Conditions -  °F | °C
As of 8:35 AM on Thursday 23 Oct 2014 (Local Time) from KGWR Reporting Station
Clear Clear  
Wind Chill: 34°   Ceiling: Unl
Heat Index: 41°   Visibility: 10mi
Dew Point: 39°   Wind: 12mph
Humidity: 93%   Direction: 220°SW
Pressure: 29.95"   Gusts: NA
Location:  46.1988°N, 98.3822°W
Report Text: KGWR 231335Z AUTO 22010KT 10SM CLR 05/04 A2995 RMK A01 P000
Loading
Personal Weather Stations






























Interactive Weather Map
Tropical Storm Tracking
New forecast layout! Learn more

10-Day Weather Forecast

Advertisements
Track Severe Weather on mobile